createdAt,value
2017-01-23T00:00:24.581Z,919.72
2017-01-23T00:00:53.442Z,919.73
2017-01-23T00:01:22.435Z,919.74
2017-01-23T00:01:50.399Z,919.76
2017-01-23T00:02:18.441Z,919.74
2017-01-23T00:02:46.454Z,919.73
2017-01-23T00:03:14.532Z,919.81
2017-01-23T00:03:42.548Z,919.77
2017-01-23T00:04:10.433Z,919.76
2017-01-23T00:04:38.414Z,919.74
2017-01-23T00:05:06.495Z,919.81
2017-01-23T00:05:35.354Z,919.81
2017-01-23T00:06:03.320Z,919.8
2017-01-23T00:06:33.001Z,919.74
2017-01-23T00:07:01.040Z,919.8
2017-01-23T00:07:29.095Z,919.83
2017-01-23T00:07:57.070Z,919.83
2017-01-23T00:08:25.932Z,919.85
2017-01-23T00:08:54.836Z,919.84
2017-01-23T00:09:22.901Z,919.85
2017-01-23T00:09:51.661Z,919.86
2017-01-23T00:10:20.438Z,919.87
2017-01-23T00:10:48.446Z,919.9
2017-01-23T00:11:17.344Z,919.9
2017-01-23T00:11:47.759Z,919.92
2017-01-23T00:12:15.663Z,919.88
2017-01-23T00:12:43.555Z,919.91
2017-01-23T00:13:11.515Z,919.95
2017-01-23T00:13:39.430Z,919.95
2017-01-23T00:14:08.285Z,919.97
2017-01-23T00:14:36.380Z,919.98
2017-01-23T00:15:06.022Z,920
2017-01-23T00:15:34.165Z,920.02
2017-01-23T00:16:02.257Z,920.04
2017-01-23T00:16:30.202Z,920.04
2017-01-23T00:16:58.121Z,920.04
2017-01-23T00:17:26.902Z,920.01
2017-01-23T00:17:56.531Z,920.08
2017-01-23T00:18:25.253Z,920.06
2017-01-23T00:18:53.251Z,920.04
2017-01-23T00:19:21.209Z,920.09
2017-01-23T00:19:49.269Z,920.06
2017-01-23T00:20:17.276Z,920.04
2017-01-23T00:20:45.275Z,920.05
2017-01-23T00:21:13.381Z,920.05
2017-01-23T00:21:42.235Z,920.05
2017-01-23T00:22:10.222Z,920.1
2017-01-23T00:22:38.207Z,920.03
2017-01-23T00:23:45.320Z,920.08
2017-01-23T00:24:13.407Z,920.08
2017-01-23T00:24:42.837Z,920.11
2017-01-23T00:25:10.728Z,920.11
2017-01-23T00:25:38.814Z,920.13
2017-01-23T00:26:06.810Z,920.14
2017-01-23T00:26:35.672Z,920.15
2017-01-23T00:27:03.717Z,920.12
2017-01-23T00:27:31.644Z,920.17
2017-01-23T00:28:00.535Z,920.13
2017-01-23T00:28:28.442Z,920.18
2017-01-23T00:28:56.559Z,920.2
2017-01-23T00:29:24.459Z,920.17
2017-01-23T00:29:52.431Z,920.14
2017-01-23T00:30:20.415Z,920.16
2017-01-23T00:30:48.423Z,920.25
2017-01-23T00:31:18.028Z,920.19
2017-01-23T00:31:47.035Z,920.24
2017-01-23T00:32:15.024Z,920.2
2017-01-23T00:32:44.685Z,920.19
2017-01-23T00:33:12.783Z,920.24
2017-01-23T00:33:40.944Z,920.2
2017-01-23T00:34:08.952Z,920.17
2017-01-23T00:34:37.043Z,920.2
2017-01-23T00:35:05.055Z,920.09
2017-01-23T00:35:33.761Z,920.18
2017-01-23T00:36:01.623Z,920.16
2017-01-23T00:36:29.532Z,920.11
2017-01-23T00:36:58.392Z,920.16
2017-01-23T00:37:26.467Z,920.14
2017-01-23T00:37:56.036Z,920.13
2017-01-23T00:38:23.915Z,920.16
2017-01-23T00:38:52.775Z,920.13
2017-01-23T00:39:20.714Z,920.09
2017-01-23T00:39:48.743Z,920.14
2017-01-23T00:40:16.720Z,920.15
2017-01-23T00:40:45.592Z,920.16
2017-01-23T00:41:13.537Z,920.18
2017-01-23T00:41:41.488Z,920.12
2017-01-23T00:42:10.375Z,920.18
2017-01-23T00:42:38.360Z,920.17
2017-01-23T00:43:07.236Z,920.16
2017-01-23T00:43:35.310Z,920.16
2017-01-23T00:44:03.282Z,920.12
2017-01-23T00:44:31.277Z,920.09
2017-01-23T00:45:00.024Z,920.2
2017-01-23T00:45:28.100Z,920.2
2017-01-23T00:45:57.012Z,920.14
2017-01-23T00:46:25.736Z,920.17
2017-01-23T00:46:53.847Z,920.08
2017-01-23T00:47:21.916Z,920.09
2017-01-23T00:47:49.918Z,920.19
2017-01-23T00:48:19.503Z,920.21
2017-01-23T00:48:48.260Z,920.17
2017-01-23T00:49:16.071Z,920.18
2017-01-23T00:49:44.171Z,920.21
2017-01-23T00:50:13.050Z,920.22
2017-01-23T00:50:41.170Z,920.17
2017-01-23T00:51:09.067Z,920.25
2017-01-23T00:51:37.156Z,920.23
2017-01-23T00:52:05.222Z,920.21
2017-01-23T00:52:33.089Z,920.23
2017-01-23T00:53:01.030Z,920.23
2017-01-23T00:53:28.836Z,920.28
2017-01-23T00:53:56.746Z,920.26
2017-01-23T00:54:25.606Z,920.28
2017-01-23T00:54:53.745Z,920.31
2017-01-23T00:55:21.739Z,920.31
2017-01-23T00:55:49.709Z,920.29
2017-01-23T00:56:17.530Z,920.3
2017-01-23T00:56:45.818Z,920.25
2017-01-23T00:57:13.777Z,920.26
2017-01-23T00:57:42.420Z,920.32
2017-01-23T00:58:11.194Z,920.27
2017-01-23T00:58:39.929Z,920.27
2017-01-23T00:59:07.982Z,920.31
2017-01-23T00:59:36.061Z,920.34
2017-01-23T01:00:04.055Z,920.35
2017-01-23T01:00:32.062Z,920.34
2017-01-23T01:01:00.040Z,920.35
2017-01-23T01:01:28.115Z,920.37
2017-01-23T01:01:56.360Z,920.32
2017-01-23T01:03:02.598Z,920.35
2017-01-23T01:03:30.584Z,920.34
2017-01-23T01:04:00.195Z,920.35
2017-01-23T01:04:28.265Z,920.41
2017-01-23T01:04:56.182Z,920.41
2017-01-23T01:05:24.261Z,920.4
2017-01-23T01:05:53.113Z,920.41
2017-01-23T01:06:21.956Z,920.39
2017-01-23T01:06:50.852Z,920.32
2017-01-23T01:07:19.558Z,920.36
2017-01-23T01:07:47.643Z,920.34
2017-01-23T01:08:15.772Z,920.38
2017-01-23T01:08:43.755Z,920.4
2017-01-23T01:09:12.423Z,920.32
2017-01-23T01:09:40.495Z,920.34
2017-01-23T01:10:08.519Z,920.39
2017-01-23T01:10:36.556Z,920.18
2017-01-23T01:11:05.416Z,920.32
2017-01-23T01:11:33.505Z,920.31
2017-01-23T01:12:01.616Z,920.33
2017-01-23T01:12:29.625Z,920.36
2017-01-23T01:12:57.685Z,920.33
2017-01-23T01:13:27.268Z,920.36
2017-01-23T01:13:55.378Z,920.38
2017-01-23T01:14:24.082Z,920.28
2017-01-23T01:14:54.530Z,920.29
2017-01-23T01:15:22.627Z,920.4
2017-01-23T01:15:50.617Z,920.37
2017-01-23T01:16:18.604Z,920.34
2017-01-23T01:16:46.821Z,920.22
2017-01-23T01:17:15.705Z,920.33
2017-01-23T01:17:43.818Z,920.41
2017-01-23T01:18:12.590Z,920.28
2017-01-23T01:18:40.611Z,920.34
2017-01-23T01:19:08.645Z,920.3
2017-01-23T01:19:36.527Z,920.3
2017-01-23T01:20:04.512Z,920.4
2017-01-23T01:20:32.588Z,920.39
2017-01-23T01:21:01.391Z,920.37
2017-01-23T01:21:29.408Z,920.37
2017-01-23T01:21:57.241Z,920.32
2017-01-23T01:22:26.108Z,920.35
2017-01-23T01:22:54.093Z,920.4
2017-01-23T01:23:22.854Z,920.36
2017-01-23T01:23:50.845Z,920.38
2017-01-23T01:24:18.849Z,920.34
2017-01-23T01:24:46.801Z,920.33
2017-01-23T01:25:14.841Z,920.23
2017-01-23T01:25:42.878Z,920.34
2017-01-23T01:26:11.630Z,920.31
2017-01-23T01:26:39.604Z,920.39
2017-01-23T01:27:07.705Z,920.37
2017-01-23T01:27:36.565Z,920.41
2017-01-23T01:28:04.548Z,920.33
2017-01-23T01:28:33.390Z,920.38
2017-01-23T01:29:02.278Z,920.44
2017-01-23T01:29:30.379Z,920.42
2017-01-23T01:29:58.507Z,920.4
2017-01-23T01:30:26.499Z,920.39
2017-01-23T01:30:54.407Z,920.34
2017-01-23T01:31:22.483Z,920.4
2017-01-23T01:31:51.318Z,920.43
2017-01-23T01:32:20.326Z,920.35
2017-01-23T01:32:48.308Z,920.43
2017-01-23T01:33:16.990Z,920.39
2017-01-23T01:33:45.766Z,920.4
2017-01-23T01:34:15.275Z,920.39
2017-01-23T01:34:43.363Z,920.42
2017-01-23T01:35:11.431Z,920.42
2017-01-23T01:35:39.529Z,920.39
2017-01-23T01:36:07.605Z,920.36
2017-01-23T01:36:35.570Z,920.35
2017-01-23T01:37:03.608Z,920.28
2017-01-23T01:37:31.510Z,920.29
2017-01-23T01:37:59.458Z,920.33
2017-01-23T01:38:27.410Z,920.38
2017-01-23T01:38:55.307Z,920.38
2017-01-23T01:39:23.392Z,920.34
2017-01-23T01:39:52.954Z,920.37
2017-01-23T01:40:20.843Z,920.36
2017-01-23T01:40:48.733Z,920.33
2017-01-23T01:41:16.814Z,920.38
2017-01-23T01:42:23.922Z,920.4
2017-01-23T01:42:52.001Z,920.38
2017-01-23T01:43:20.738Z,920.38
2017-01-23T01:43:48.715Z,920.36
2017-01-23T01:44:16.801Z,920.38
2017-01-23T01:44:44.892Z,920.38
2017-01-23T01:45:13.747Z,920.41
2017-01-23T01:45:41.829Z,920.43
2017-01-23T01:46:09.848Z,920.41
2017-01-23T01:46:37.964Z,920.43
2017-01-23T01:47:05.865Z,920.38
2017-01-23T01:47:34.907Z,920.36
2017-01-23T01:48:03.766Z,920.39
2017-01-23T01:48:32.607Z,920.43
2017-01-23T01:49:00.587Z,920.4
2017-01-23T01:49:28.512Z,920.41
2017-01-23T01:49:56.452Z,920.38
2017-01-23T01:50:25.226Z,920.33
2017-01-23T01:50:53.221Z,920.4
2017-01-23T01:51:21.244Z,920.38
2017-01-23T01:51:49.251Z,920.38
2017-01-23T01:52:17.225Z,920.37
2017-01-23T01:52:45.262Z,920.42
2017-01-23T01:53:13.257Z,920.38
2017-01-23T01:53:42.130Z,920.32
2017-01-23T01:54:10.948Z,920.41
2017-01-23T01:54:38.944Z,920.32
2017-01-23T01:55:06.761Z,920.32
2017-01-23T01:55:34.656Z,920.34
2017-01-23T01:56:02.728Z,920.33
2017-01-23T01:56:30.554Z,920.38
2017-01-23T01:57:00.781Z,920.4
2017-01-23T01:57:29.546Z,920.38
2017-01-23T01:57:58.436Z,920.38
2017-01-23T01:58:26.476Z,920.41
2017-01-23T01:58:55.334Z,920.38
2017-01-23T01:59:24.964Z,920.36
2017-01-23T01:59:53.799Z,920.36
2017-01-23T02:00:21.846Z,920.29
2017-01-23T02:00:50.739Z,920.35
2017-01-23T02:01:19.595Z,920.36
2017-01-23T02:01:49.255Z,920.36
2017-01-23T02:02:18.205Z,920.41
2017-01-23T02:02:47.039Z,920.39
2017-01-23T02:03:15.125Z,920.39
2017-01-23T02:03:43.009Z,920.37
2017-01-23T02:04:11.751Z,920.39
2017-01-23T02:04:39.708Z,920.36
2017-01-23T02:05:08.527Z,920.38
2017-01-23T02:05:38.931Z,920.35
2017-01-23T02:06:07.780Z,920.33
2017-01-23T02:06:35.879Z,920.41
2017-01-23T02:07:03.825Z,920.41
2017-01-23T02:07:32.586Z,920.43
2017-01-23T02:08:00.578Z,920.38
2017-01-23T02:08:28.683Z,920.39
2017-01-23T02:08:57.470Z,920.43
2017-01-23T02:09:26.370Z,920.36
2017-01-23T02:09:55.916Z,920.42
2017-01-23T02:10:23.824Z,920.4
2017-01-23T02:10:52.591Z,920.38
2017-01-23T02:11:21.428Z,920.31
2017-01-23T02:11:49.435Z,920.33
2017-01-23T02:12:17.324Z,920.39
2017-01-23T02:12:45.418Z,920.38
2017-01-23T02:13:13.490Z,920.34
2017-01-23T02:13:42.404Z,920.36
2017-01-23T02:14:10.489Z,920.39
2017-01-23T02:14:39.333Z,920.41
2017-01-23T02:15:07.336Z,920.35
2017-01-23T02:15:35.240Z,920.28
2017-01-23T02:16:03.122Z,920.32
2017-01-23T02:16:31.681Z,920.19
2017-01-23T02:17:01.229Z,920.26
2017-01-23T02:17:30.030Z,920.32
2017-01-23T02:17:58.082Z,920.26
2017-01-23T02:18:26.155Z,920.22
2017-01-23T02:18:55.031Z,920.28
2017-01-23T02:19:23.811Z,920.31
2017-01-23T02:19:53.450Z,920.25
2017-01-23T02:20:22.215Z,920.2
2017-01-23T02:20:50.213Z,920.28
2017-01-23T02:21:56.357Z,920.24
2017-01-23T02:22:24.447Z,920.23
2017-01-23T02:22:53.205Z,920.18
2017-01-23T02:23:22.063Z,920.15
2017-01-23T02:23:50.927Z,920.26
2017-01-23T02:24:19.696Z,920.19
2017-01-23T02:24:47.665Z,920.17
2017-01-23T02:25:16.509Z,920.21
2017-01-23T02:25:44.435Z,920.19
2017-01-23T02:26:14.103Z,920.17
2017-01-23T02:26:42.185Z,920.2
2017-01-23T02:27:10.223Z,920.19
2017-01-23T02:27:39.085Z,920.15
2017-01-23T02:28:07.929Z,920.16
2017-01-23T02:28:36.001Z,920.15
2017-01-23T02:29:04.806Z,920.14
2017-01-23T02:29:32.648Z,920.2
2017-01-23T02:30:01.368Z,920.18
2017-01-23T02:30:29.183Z,920.25
2017-01-23T02:30:57.202Z,920.15
2017-01-23T02:31:25.122Z,920.2
2017-01-23T02:31:53.968Z,920.23
2017-01-23T02:32:22.062Z,920.2
2017-01-23T02:32:50.997Z,920.19
2017-01-23T02:33:19.780Z,920.18
2017-01-23T02:33:47.816Z,920.24
2017-01-23T02:34:15.898Z,920.23
2017-01-23T02:34:43.813Z,920.16
2017-01-23T02:35:13.387Z,920.09
2017-01-23T02:35:41.363Z,920.18
2017-01-23T02:36:09.461Z,920.15
2017-01-23T02:36:37.526Z,920.17
2017-01-23T02:37:06.115Z,920.22
2017-01-23T02:37:34.229Z,920.15
2017-01-23T02:38:03.735Z,920.18
2017-01-23T02:38:32.592Z,920.2
2017-01-23T02:39:00.387Z,920.17
2017-01-23T02:39:29.221Z,920.18
2017-01-23T02:39:57.168Z,920.17
2017-01-23T02:40:25.266Z,920.15
2017-01-23T02:40:53.249Z,920.14
2017-01-23T02:41:22.034Z,920.16
2017-01-23T02:41:50.702Z,920.18
2017-01-23T02:42:18.664Z,920.11
2017-01-23T02:42:46.656Z,920.06
2017-01-23T02:43:15.401Z,920.13
2017-01-23T02:43:44.235Z,920.12
2017-01-23T02:44:12.360Z,920.07
2017-01-23T02:44:41.187Z,920.08
2017-01-23T02:45:09.835Z,920.05
2017-01-23T02:45:38.677Z,920.08
2017-01-23T02:46:06.683Z,919.98
2017-01-23T02:46:34.724Z,920.02
2017-01-23T02:47:02.792Z,919.99
2017-01-23T02:47:32.479Z,919.99
2017-01-23T02:48:00.488Z,919.98
2017-01-23T02:48:28.495Z,920.01
2017-01-23T02:48:56.458Z,920.01
2017-01-23T02:49:24.423Z,919.93
2017-01-23T02:49:54.056Z,919.9
2017-01-23T02:50:21.853Z,919.94
2017-01-23T02:50:49.752Z,919.98
2017-01-23T02:51:17.753Z,919.95
2017-01-23T02:51:47.391Z,919.92
2017-01-23T02:52:15.484Z,919.96
2017-01-23T02:52:44.281Z,919.92
2017-01-23T02:53:12.241Z,919.89
2017-01-23T02:53:40.238Z,919.93
2017-01-23T02:54:09.097Z,919.91
2017-01-23T02:54:36.927Z,919.86
2017-01-23T02:55:05.684Z,919.93
2017-01-23T02:55:34.529Z,919.9
2017-01-23T02:56:02.570Z,919.76
2017-01-23T02:56:31.423Z,919.87
2017-01-23T02:57:00.160Z,919.81
2017-01-23T02:57:28.994Z,919.83
2017-01-23T02:57:56.978Z,919.8
2017-01-23T02:58:25.783Z,919.78
2017-01-23T02:58:53.766Z,919.74
2017-01-23T02:59:21.745Z,919.71
2017-01-23T02:59:50.425Z,919.75
2017-01-23T03:00:18.507Z,919.71
2017-01-23T03:01:24.834Z,919.74
2017-01-23T03:01:52.910Z,919.67
2017-01-23T03:02:20.877Z,919.7
2017-01-23T03:02:49.023Z,919.6
2017-01-23T03:03:17.015Z,919.63
2017-01-23T03:03:46.665Z,919.62
2017-01-23T03:04:15.514Z,919.69
2017-01-23T03:04:43.484Z,919.64
2017-01-23T03:05:12.203Z,919.63
2017-01-23T03:05:40.211Z,919.51
2017-01-23T03:06:08.201Z,919.54
2017-01-23T03:06:37.006Z,919.57
2017-01-23T03:07:04.996Z,919.53
2017-01-23T03:07:34.521Z,919.56
2017-01-23T03:08:02.237Z,919.54
2017-01-23T03:08:31.121Z,919.54
2017-01-23T03:08:59.156Z,919.55
2017-01-23T03:09:27.828Z,919.54
2017-01-23T03:09:57.292Z,919.6
2017-01-23T03:10:25.310Z,919.5
2017-01-23T03:10:54.144Z,919.55
2017-01-23T03:11:23.657Z,919.58
2017-01-23T03:11:51.756Z,919.59
2017-01-23T03:12:20.538Z,919.57
2017-01-23T03:12:48.678Z,919.58
2017-01-23T03:13:16.717Z,919.61
2017-01-23T03:13:45.573Z,919.58
2017-01-23T03:14:13.667Z,919.59
2017-01-23T03:14:41.560Z,919.52
2017-01-23T03:15:10.318Z,919.53
2017-01-23T03:15:38.412Z,919.53
2017-01-23T03:16:08.027Z,919.51
2017-01-23T03:16:36.016Z,919.5
2017-01-23T03:17:04.901Z,919.5
2017-01-23T03:17:33.630Z,919.46
2017-01-23T03:18:01.802Z,919.42
2017-01-23T03:18:30.473Z,919.39
2017-01-23T03:18:58.523Z,919.41
2017-01-23T03:19:26.400Z,919.39
2017-01-23T03:19:54.499Z,919.36
2017-01-23T03:20:23.161Z,919.38
2017-01-23T03:20:51.176Z,919.35
2017-01-23T03:21:19.944Z,919.33
2017-01-23T03:21:47.999Z,919.23
2017-01-23T03:22:16.080Z,919.24
2017-01-23T03:22:43.971Z,919.25
2017-01-23T03:23:12.715Z,919.21
2017-01-23T03:23:41.611Z,919.16
2017-01-23T03:24:09.562Z,919.18
2017-01-23T03:24:38.403Z,919.14
2017-01-23T03:25:06.468Z,919.17
2017-01-23T03:25:34.569Z,919.17
2017-01-23T03:26:03.417Z,919.14
2017-01-23T03:26:31.479Z,919.13
2017-01-23T03:26:59.196Z,919.13
2017-01-23T03:27:27.985Z,919.13
2017-01-23T03:27:56.768Z,919.1
2017-01-23T03:28:24.792Z,919.07
2017-01-23T03:28:54.334Z,919.07
2017-01-23T03:29:23.199Z,919.06
2017-01-23T03:29:51.284Z,919.03
2017-01-23T03:30:19.241Z,919
2017-01-23T03:30:48.116Z,918.98
2017-01-23T03:31:16.970Z,918.95
2017-01-23T03:31:44.974Z,919
2017-01-23T03:32:13.737Z,918.97
2017-01-23T03:32:42.480Z,918.88
2017-01-23T03:33:10.817Z,918.96
2017-01-23T03:33:39.663Z,918.93
2017-01-23T03:34:07.575Z,918.97
2017-01-23T03:34:36.446Z,918.96
2017-01-23T03:35:04.496Z,918.94
2017-01-23T03:35:32.532Z,918.92
2017-01-23T03:36:01.398Z,918.9
2017-01-23T03:36:29.441Z,918.9
2017-01-23T03:36:57.397Z,918.93
2017-01-23T03:37:27.040Z,918.9
2017-01-23T03:37:55.911Z,918.94
2017-01-23T03:38:24.017Z,918.9
2017-01-23T03:38:52.088Z,918.95
2017-01-23T03:39:20.185Z,918.92
2017-01-23T03:39:48.091Z,918.95
2017-01-23T03:40:55.201Z,918.9
2017-01-23T03:41:23.185Z,918.91
2017-01-23T03:41:52.807Z,918.91
2017-01-23T03:42:21.566Z,918.93
2017-01-23T03:42:49.569Z,918.91
2017-01-23T03:43:18.341Z,918.97
2017-01-23T03:43:46.400Z,918.99
2017-01-23T03:44:14.465Z,918.95
2017-01-23T03:44:43.273Z,919
2017-01-23T03:45:12.160Z,918.92
2017-01-23T03:45:40.914Z,918.93
2017-01-23T03:46:08.859Z,918.97
2017-01-23T03:46:37.626Z,918.93
2017-01-23T03:47:05.682Z,918.95
2017-01-23T03:47:33.755Z,918.96
2017-01-23T03:48:01.863Z,918.94
2017-01-23T03:48:30.743Z,918.93
2017-01-23T03:48:58.825Z,918.91
2017-01-23T03:49:27.689Z,918.95
2017-01-23T03:49:55.797Z,918.97
2017-01-23T03:50:23.710Z,918.92
2017-01-23T03:50:52.547Z,918.92
2017-01-23T03:51:21.341Z,918.92
2017-01-23T03:51:50.017Z,918.93
2017-01-23T03:52:18.110Z,918.91
2017-01-23T03:52:47.798Z,918.9
2017-01-23T03:53:15.796Z,918.86
2017-01-23T03:53:44.588Z,918.86
2017-01-23T03:54:12.565Z,918.88
2017-01-23T03:54:41.324Z,918.89
2017-01-23T03:55:09.143Z,918.86
2017-01-23T03:55:37.888Z,918.9
2017-01-23T03:56:05.878Z,918.87
2017-01-23T03:56:33.898Z,918.82
2017-01-23T03:57:01.935Z,918.91
2017-01-23T03:57:30.600Z,918.85
2017-01-23T03:57:58.583Z,918.85
2017-01-23T03:58:26.635Z,918.87
2017-01-23T03:58:55.457Z,918.84
2017-01-23T03:59:23.559Z,918.82
2017-01-23T03:59:51.455Z,918.83
2017-01-23T04:00:20.333Z,918.87
2017-01-23T04:00:48.427Z,918.83
2017-01-23T04:01:16.371Z,918.84
2017-01-23T04:01:45.233Z,918.84
2017-01-23T04:02:14.086Z,918.83
2017-01-23T04:02:42.920Z,918.82
2017-01-23T04:03:11.299Z,918.76
2017-01-23T04:03:39.152Z,918.77
2017-01-23T04:04:07.031Z,918.75
2017-01-23T04:04:35.001Z,918.73
2017-01-23T04:05:03.869Z,918.72
2017-01-23T04:05:31.913Z,918.74
2017-01-23T04:05:59.977Z,918.71
2017-01-23T04:06:28.751Z,918.67
2017-01-23T04:06:56.868Z,918.67
2017-01-23T04:07:24.943Z,918.6
2017-01-23T04:07:53.060Z,918.61
2017-01-23T04:08:22.684Z,918.65
2017-01-23T04:08:50.587Z,918.65
2017-01-23T04:09:19.352Z,918.54
2017-01-23T04:09:47.309Z,918.61
2017-01-23T04:10:15.213Z,918.64
2017-01-23T04:10:43.097Z,918.61
2017-01-23T04:11:11.011Z,918.56
2017-01-23T04:11:39.086Z,918.58
2017-01-23T04:12:07.997Z,918.6
2017-01-23T04:12:35.990Z,918.55
2017-01-23T04:13:03.965Z,918.51
2017-01-23T04:13:32.946Z,918.58
2017-01-23T04:14:01.805Z,918.54
2017-01-23T04:14:30.555Z,918.5
2017-01-23T04:14:58.510Z,918.5
2017-01-23T04:15:26.600Z,918.52
2017-01-23T04:15:54.625Z,918.52
2017-01-23T04:16:22.673Z,918.45
2017-01-23T04:16:50.660Z,918.51
2017-01-23T04:17:20.312Z,918.48
2017-01-23T04:17:48.412Z,918.39
2017-01-23T04:18:16.592Z,918.46
2017-01-23T04:18:45.362Z,918.44
2017-01-23T04:19:13.445Z,918.45
2017-01-23T04:20:19.773Z,918.41
2017-01-23T04:20:47.760Z,918.41
2017-01-23T04:21:15.728Z,918.44
2017-01-23T04:21:44.489Z,918.46
2017-01-23T04:22:12.400Z,918.43
2017-01-23T04:22:40.482Z,918.45
2017-01-23T04:23:08.368Z,918.45
2017-01-23T04:23:36.340Z,918.47
2017-01-23T04:24:05.221Z,918.46
2017-01-23T04:24:34.882Z,918.41
2017-01-23T04:25:03.736Z,918.43
2017-01-23T04:25:31.674Z,918.43
2017-01-23T04:26:00.537Z,918.44
2017-01-23T04:26:28.507Z,918.38
2017-01-23T04:26:58.150Z,918.37
2017-01-23T04:27:26.943Z,918.4
2017-01-23T04:27:54.976Z,918.41
2017-01-23T04:28:24.085Z,918.43
2017-01-23T04:28:52.943Z,918.39
2017-01-23T04:29:20.959Z,918.38
2017-01-23T04:29:49.841Z,918.39
2017-01-23T04:30:17.806Z,918.38
2017-01-23T04:30:45.928Z,918.41
2017-01-23T04:31:13.988Z,918.41
2017-01-23T04:31:42.770Z,918.43
2017-01-23T04:32:11.656Z,918.44
2017-01-23T04:32:39.650Z,918.43
2017-01-23T04:33:07.559Z,918.42
2017-01-23T04:33:35.707Z,918.38
2017-01-23T04:34:03.774Z,918.41
2017-01-23T04:34:32.555Z,918.44
2017-01-23T04:35:00.614Z,918.39
2017-01-23T04:35:30.255Z,918.42
2017-01-23T04:35:59.043Z,918.38
2017-01-23T04:36:28.559Z,918.39
2017-01-23T04:36:58.178Z,918.39
2017-01-23T04:37:26.070Z,918.38
2017-01-23T04:37:53.939Z,918.41
2017-01-23T04:38:21.980Z,918.4
2017-01-23T04:38:50.756Z,918.4
2017-01-23T04:39:18.555Z,918.44
2017-01-23T04:39:47.441Z,918.39
2017-01-23T04:40:16.292Z,918.43
2017-01-23T04:40:45.036Z,918.43
2017-01-23T04:41:12.963Z,918.43
2017-01-23T04:41:41.029Z,918.4
2017-01-23T04:42:09.002Z,918.38
2017-01-23T04:42:36.943Z,918.37
2017-01-23T04:43:05.767Z,918.42
2017-01-23T04:43:33.742Z,918.46
2017-01-23T04:44:02.585Z,918.43
2017-01-23T04:44:30.680Z,918.44
2017-01-23T04:44:58.814Z,918.43
2017-01-23T04:45:26.876Z,918.38
2017-01-23T04:45:55.740Z,918.44
2017-01-23T04:46:24.514Z,918.43
2017-01-23T04:46:52.607Z,918.49
2017-01-23T04:47:20.734Z,918.4
2017-01-23T04:47:49.490Z,918.41
2017-01-23T04:48:17.396Z,918.37
2017-01-23T04:48:46.308Z,918.4
2017-01-23T04:49:14.361Z,918.41
2017-01-23T04:49:43.226Z,918.39
2017-01-23T04:50:11.117Z,918.36
2017-01-23T04:50:39.210Z,918.36
2017-01-23T04:51:08.856Z,918.35
2017-01-23T04:51:37.767Z,918.36
2017-01-23T04:52:05.761Z,918.33
2017-01-23T04:52:33.639Z,918.37
2017-01-23T04:53:01.737Z,918.36
2017-01-23T04:53:29.735Z,918.38
2017-01-23T04:53:58.571Z,918.39
2017-01-23T04:54:26.609Z,918.33
2017-01-23T04:54:56.246Z,918.39
2017-01-23T04:55:25.072Z,918.36
2017-01-23T04:55:53.902Z,918.37
2017-01-23T04:56:21.796Z,918.38
2017-01-23T04:56:49.793Z,918.4
2017-01-23T04:57:18.681Z,918.35
2017-01-23T04:57:46.564Z,918.38
2017-01-23T04:58:14.557Z,918.38
2017-01-23T04:58:43.418Z,918.35
2017-01-23T04:59:49.466Z,918.37
2017-01-23T05:00:17.273Z,918.37
2017-01-23T05:00:45.242Z,918.37
2017-01-23T05:01:14.095Z,918.38
2017-01-23T05:01:43.735Z,918.37
2017-01-23T05:02:12.420Z,918.34
2017-01-23T05:02:41.180Z,918.36
2017-01-23T05:03:09.239Z,918.37
2017-01-23T05:03:37.259Z,918.36
2017-01-23T05:04:06.154Z,918.33
2017-01-23T05:04:34.140Z,918.29
2017-01-23T05:05:02.270Z,918.25
2017-01-23T05:05:31.032Z,918.28
2017-01-23T05:05:58.913Z,918.2
2017-01-23T05:06:26.982Z,918.25
2017-01-23T05:06:55.090Z,918.23
2017-01-23T05:07:23.057Z,918.23
2017-01-23T05:07:51.026Z,918.2
2017-01-23T05:08:19.706Z,918.21
2017-01-23T05:08:47.632Z,918.2
2017-01-23T05:09:15.645Z,918.19
2017-01-23T05:09:43.615Z,918.18
2017-01-23T05:10:11.708Z,918.2
2017-01-23T05:10:39.611Z,918.19
2017-01-23T05:11:08.494Z,918.19
2017-01-23T05:11:37.304Z,918.18
2017-01-23T05:12:05.395Z,918.19
2017-01-23T05:12:33.395Z,918.18
2017-01-23T05:13:01.387Z,918.18
2017-01-23T05:13:29.453Z,918.2
2017-01-23T05:13:58.155Z,918.19
2017-01-23T05:14:26.208Z,918.18
2017-01-23T05:14:55.072Z,918.18
2017-01-23T05:15:23.864Z,918.2
2017-01-23T05:15:52.593Z,918.17
2017-01-23T05:16:22.232Z,918.18
2017-01-23T05:16:51.087Z,918.14
2017-01-23T05:17:19.054Z,918.16
2017-01-23T05:17:47.877Z,918.18
2017-01-23T05:18:15.976Z,918.19
2017-01-23T05:18:44.202Z,918.18
2017-01-23T05:19:12.304Z,918.16
2017-01-23T05:19:40.281Z,918.15
2017-01-23T05:20:08.244Z,918.19
2017-01-23T05:20:36.325Z,918.18
2017-01-23T05:21:04.387Z,918.16
2017-01-23T05:21:33.229Z,918.17
2017-01-23T05:22:01.353Z,918.15
2017-01-23T05:22:29.298Z,918.17
2017-01-23T05:22:58.915Z,918.14
2017-01-23T05:23:26.980Z,918.17
2017-01-23T05:23:55.856Z,918.15
2017-01-23T05:24:23.808Z,918.16
2017-01-23T05:24:51.777Z,918.16
2017-01-23T05:25:19.859Z,918.16
2017-01-23T05:25:47.957Z,918.18
2017-01-23T05:26:17.603Z,918.16
2017-01-23T05:26:45.724Z,918.17
2017-01-23T05:27:13.709Z,918.17
2017-01-23T05:27:41.599Z,918.14
2017-01-23T05:28:10.456Z,918.14
2017-01-23T05:28:38.413Z,918.12
2017-01-23T05:29:07.297Z,918.14
2017-01-23T05:29:36.152Z,918.13
2017-01-23T05:30:04.065Z,918.11
2017-01-23T05:30:33.625Z,918.12
2017-01-23T05:31:02.555Z,918.11
2017-01-23T05:31:30.641Z,918.13
2017-01-23T05:31:59.487Z,918.12
2017-01-23T05:32:29.135Z,918.16
2017-01-23T05:32:57.889Z,918.13
2017-01-23T05:33:25.851Z,918.14
2017-01-23T05:33:54.140Z,918.11
2017-01-23T05:34:23.599Z,918.14
2017-01-23T05:34:51.544Z,918.13
2017-01-23T05:35:19.590Z,918.15
2017-01-23T05:35:48.456Z,918.14
2017-01-23T05:36:17.318Z,918.15
2017-01-23T05:36:45.328Z,918.13
2017-01-23T05:37:13.402Z,918.18
2017-01-23T05:37:42.258Z,918.14
2017-01-23T05:38:10.155Z,918.15
2017-01-23T05:39:16.383Z,918.15
2017-01-23T05:39:44.458Z,918.16
2017-01-23T05:40:12.425Z,918.16
2017-01-23T05:40:40.399Z,918.15
2017-01-23T05:41:09.272Z,918.12
2017-01-23T05:41:38.140Z,918.16
2017-01-23T05:42:06.982Z,918.17
2017-01-23T05:42:35.045Z,918.16
2017-01-23T05:43:03.149Z,918.13
2017-01-23T05:43:32.044Z,918.17
2017-01-23T05:44:00.817Z,918.13
2017-01-23T05:44:29.030Z,918.15
2017-01-23T05:44:57.887Z,918.14
2017-01-23T05:45:25.861Z,918.13
2017-01-23T05:45:53.748Z,918.12
2017-01-23T05:46:21.860Z,918.1
2017-01-23T05:46:50.586Z,918.09
2017-01-23T05:47:18.579Z,918.09
2017-01-23T05:47:46.483Z,918.05
2017-01-23T05:48:14.492Z,918.05
2017-01-23T05:48:43.281Z,918.05
2017-01-23T05:49:11.400Z,918.02
2017-01-23T05:49:39.495Z,918.01
2017-01-23T05:50:08.091Z,918.01
2017-01-23T05:50:36.010Z,918.01
2017-01-23T05:51:03.858Z,917.99
2017-01-23T05:51:31.937Z,918.01
2017-01-23T05:52:00.726Z,917.97
2017-01-23T05:52:28.743Z,918.01
2017-01-23T05:52:58.367Z,918.05
2017-01-23T05:53:27.245Z,918.03
2017-01-23T05:53:56.085Z,918.04
2017-01-23T05:54:23.979Z,918.02
2017-01-23T05:54:52.697Z,918.02
2017-01-23T05:55:20.732Z,918.04
2017-01-23T05:55:48.707Z,918
2017-01-23T05:56:16.692Z,918.05
2017-01-23T05:56:44.743Z,918.06
2017-01-23T05:57:13.502Z,918.08
2017-01-23T05:57:41.483Z,918.06
2017-01-23T05:58:09.467Z,918.06
2017-01-23T05:58:37.570Z,918.06
2017-01-23T05:59:05.636Z,918.07
2017-01-23T05:59:33.511Z,918.05
2017-01-23T06:00:01.600Z,918.02
2017-01-23T06:00:29.571Z,918.05
2017-01-23T06:00:58.318Z,918.02
2017-01-23T06:01:26.354Z,918.06